Time;durP1;ratioP1;P1;durP2;ratioP2;P2;SDS_P1;SDS_P2;PMS_P1;PMS_P2;Temp;Humidity;BMP_temperature;BMP_pressure;BME280_temperature;BME280_humidity;BME280_pressure;Samples;Min_cycle;Max_cycle;Signal;HPM_P1;HPM_P2
2022/11/06 00:01:51;;;;;;;1.63;1.53;;;;;;;8.08;95.89;95866.06;4378875;32;20276;-61
2022/11/06 00:04:18;;;;;;;2.57;2.47;;;;;;;7.90;96.58;95865.47;4362524;32;20436;-61
2022/11/06 00:06:49;;;;;;;1.90;1.80;;;;;;;7.86;97.10;95864.44;4357227;32;20287;-61
2022/11/06 00:09:21;;;;;;;1.57;1.47;;;;;;;7.98;96.63;95861.53;4355258;32;20284;-61
2022/11/06 00:11:51;;;;;;;2.63;1.83;;;;;;;7.81;96.66;95867.06;4378202;32;20442;-61
2022/11/06 00:14:22;;;;;;;2.00;1.90;;;;;;;7.90;96.70;95869.97;4363382;32;20348;-61
2022/11/06 00:16:48;;;;;;;2.33;2.23;;;;;;;7.81;96.84;95866.28;4371182;32;20272;-61
2022/11/06 00:19:14;;;;;;;2.53;2.43;;;;;;;7.96;96.57;95868.13;4355612;32;20299;-61
2022/11/06 00:21:41;;;;;;;1.70;1.60;;;;;;;7.94;96.46;95861.25;4362965;32;20192;-61
2022/11/06 00:24:08;;;;;;;2.50;2.40;;;;;;;8.00;96.36;95862.06;4357216;32;20315;-60
2022/11/06 00:26:34;;;;;;;2.50;2.00;;;;;;;7.74;96.80;95860.44;4334177;32;20301;-61
2022/11/06 00:29:02;;;;;;;2.63;2.53;;;;;;;7.77;97.08;95865.22;4322437;32;20304;-61
2022/11/06 00:31:34;;;;;;;2.70;2.53;;;;;;;7.78;96.42;95856.22;4346285;32;20200;-62
2022/11/06 00:34:00;;;;;;;1.87;1.80;;;;;;;7.85;96.76;95854.94;4333029;32;20341;-61
2022/11/06 00:36:32;;;;;;;2.67;2.57;;;;;;;7.86;96.14;95853.09;4369638;32;20299;-61
2022/11/06 00:38:58;;;;;;;1.47;1.47;;;;;;;7.92;95.54;95846.72;4355541;32;20326;-61
2022/11/06 00:41:25;;;;;;;1.67;1.17;;;;;;;7.86;95.34;95845.97;4351556;32;20268;-60
2022/11/06 00:43:59;;;;;;;1.80;1.70;;;;;;;7.95;95.33;95843.56;4349323;32;20344;-61
2022/11/06 00:46:26;;;;;;;1.07;1.07;;;;;;;7.90;95.45;95848.84;4326208;32;20388;-61
2022/11/06 00:48:55;;;;;;;1.67;1.67;;;;;;;7.79;95.78;95857.81;4330199;32;20289;-60
2022/11/06 00:51:25;;;;;;;0.80;0.80;;;;;;;7.79;96.08;95853.34;4356890;32;20277;-61
2022/11/06 00:53:56;;;;;;;1.67;1.63;;;;;;;7.68;96.01;95843.81;4361347;32;20358;-61
2022/11/06 00:56:22;;;;;;;1.47;1.37;;;;;;;7.56;96.58;95849.31;4367934;32;20360;-61
2022/11/06 00:58:48;;;;;;;2.43;2.23;;;;;;;7.75;96.23;95844.34;4343911;32;20356;-60
2022/11/06 01:01:35;;;;;;;2.10;1.90;;;;;;;7.62;96.14;95851.97;4337971;32;20264;-60
2022/11/06 01:04:11;;;;;;;2.13;2.03;;;;;;;7.79;95.52;95849.91;4358357;32;20231;-61
2022/11/06 01:06:40;;;;;;;1.33;1.33;;;;;;;7.73;95.23;95843.81;4353374;32;20297;-60
2022/11/06 01:09:07;;;;;;;1.17;1.17;;;;;;;7.71;95.60;95850.41;4359505;32;20305;-61
2022/11/06 01:11:38;;;;;;;2.07;1.80;;;;;;;7.72;95.73;95857.28;4347420;32;20316;-60
2022/11/06 01:14:05;;;;;;;1.10;1.10;;;;;;;7.73;95.57;95858.84;4340035;32;20323;-61
2022/11/06 01:16:32;;;;;;;2.50;1.97;;;;;;;7.48;96.16;95856.97;4346967;32;20274;-60
2022/11/06 01:18:58;;;;;;;3.03;2.33;;;;;;;7.66;95.64;95847.78;4341485;32;20289;-61
2022/11/06 01:21:29;;;;;;;0.93;0.93;;;;;;;7.50;95.60;95853.00;4361739;32;20289;-61
2022/11/06 01:24:00;;;;;;;1.63;1.53;;;;;;;7.59;95.74;95851.44;4345962;32;20311;-60
2022/11/06 01:26:30;;;;;;;1.13;1.13;;;;;;;7.33;96.48;95849.00;4359588;32;20281;-61
2022/11/06 01:28:57;;;;;;;1.30;1.30;;;;;;;7.33;96.53;95838.44;4327914;32;20278;-61
2022/11/06 01:31:26;;;;;;;1.80;1.70;;;;;;;7.37;96.33;95834.22;4362291;32;20307;-61
2022/11/06 01:33:53;;;;;;;1.77;1.67;;;;;;;7.56;95.40;95830.84;4361393;32;20340;-60
2022/11/06 01:36:19;;;;;;;1.47;1.37;;;;;;;7.36;94.99;95828.16;4367345;32;20277;-60
2022/11/06 01:38:50;;;;;;;1.57;1.47;;;;;;;7.08;95.89;95832.00;4361794;32;20318;-60
2022/11/06 01:41:22;;;;;;;2.00;1.90;;;;;;;7.20;95.81;95831.81;4358340;32;20269;-61
2022/11/06 01:43:50;;;;;;;5.17;1.27;;;;;;;7.09;95.39;95828.31;4362307;32;20293;-61
2022/11/06 01:46:18;;;;;;;0.97;0.97;;;;;;;6.66;96.20;95832.09;4358377;32;20298;-60
2022/11/06 01:48:56;;;;;;;1.00;1.00;;;;;;;6.75;96.56;95825.28;4346038;32;20365;-61
2022/11/06 01:51:29;;;;;;;1.20;1.20;;;;;;;6.81;96.30;95820.84;4338631;32;20288;-61
2022/11/06 01:53:54;;;;;;;1.03;1.03;;;;;;;6.60;96.38;95822.59;4363996;32;20285;-61
2022/11/06 01:56:22;;;;;;;0.73;0.73;;;;;;;6.55;96.98;95823.34;4361080;32;20285;-61
2022/11/06 01:58:52;;;;;;;1.03;1.03;;;;;;;6.14;98.05;95824.91;4329543;32;20273;-61
2022/11/06 02:01:18;;;;;;;0.50;0.50;;;;;;;6.20;98.64;95820.50;4338302;32;20373;-61
2022/11/06 02:03:55;;;;;;;1.27;1.20;;;;;;;6.28;98.22;95819.22;4350329;32;20320;-60
2022/11/06 02:06:21;;;;;;;1.30;1.13;;;;;;;6.11;98.71;95820.16;4351536;32;20273;-61
2022/11/06 02:08:46;;;;;;;0.73;0.73;;;;;;;6.06;98.91;95820.09;4333366;32;21857;-60
2022/11/06 02:11:12;;;;;;;0.97;0.97;;;;;;;6.17;98.74;95811.25;4350641;32;20223;-61
2022/11/06 02:14:05;;;;;;;1.23;1.13;;;;;;;6.24;98.51;95816.28;4350696;32;20235;-61
2022/11/06 02:17:02;;;;;;;0.93;0.93;;;;;;;6.35;97.80;95811.88;4356498;32;20190;-61
2022/11/06 02:19:50;;;;;;;1.20;1.20;;;;;;;6.58;96.99;95810.69;4371628;32;20277;-61
2022/11/06 02:22:40;;;;;;;0.40;0.40;;;;;;;6.33;97.02;95817.41;4354518;32;20354;-61
2022/11/06 02:25:32;;;;;;;0.53;0.53;;;;;;;6.35;96.96;95812.69;4338307;32;20339;-61
2022/11/06 02:28:08;;;;;;;0.73;0.73;;;;;;;6.38;96.88;95809.53;4343991;32;20299;-61
2022/11/06 02:30:40;;;;;;;0.93;0.93;;;;;;;6.67;95.83;95799.41;4364923;32;20312;-61
2022/11/06 02:33:10;;;;;;;0.47;0.47;;;;;;;6.80;94.72;95793.69;4319737;32;20327;-61
2022/11/06 02:36:00;;;;;;;1.17;0.80;;;;;;;6.71;94.91;95787.31;4344664;32;20432;-61
2022/11/06 02:38:33;;;;;;;1.00;1.00;;;;;;;6.78;94.53;95785.22;4353854;32;20366;-61
2022/11/06 02:41:05;;;;;;;1.00;1.00;;;;;;;6.73;93.94;95785.22;4361859;32;20344;-61
2022/11/06 02:43:47;;;;;;;0.43;0.43;;;;;;;6.59;94.77;95778.81;4358700;32;20274;-61
2022/11/06 02:46:42;;;;;;;0.83;0.83;;;;;;;6.56;95.11;95787.25;4350412;32;20315;-61
2022/11/06 02:49:18;;;;;;;0.57;0.57;;;;;;;6.49;95.64;95791.94;4349666;32;20277;-61
2022/11/06 02:51:50;;;;;;;0.50;0.50;;;;;;;6.58;96.01;95785.13;4341406;32;20359;-61
2022/11/06 02:54:20;;;;;;;1.00;1.00;;;;;;;6.66;95.07;95781.22;4289593;32;20308;-61
2022/11/06 02:56:51;;;;;;;1.33;1.33;;;;;;;6.69;94.66;95778.84;4347678;32;20281;-61
2022/11/06 02:59:44;;;;;;;2.00;1.07;;;;;;;6.68;94.43;95779.09;4365994;32;21793;-61
2022/11/06 03:02:15;;;;;;;0.70;0.70;;;;;;;6.73;94.68;95774.66;4354380;32;20272;-61
2022/11/06 03:04:54;;;;;;;0.90;0.90;;;;;;;6.58;95.25;95774.59;4352462;32;20289;-61
2022/11/06 03:07:35;;;;;;;1.70;1.60;;;;;;;6.47;95.58;95775.59;4332428;32;20380;-61
2022/11/06 03:10:03;;;;;;;1.13;1.13;;;;;;;6.74;94.25;95772.81;4347636;32;20273;-62
2022/11/06 03:12:55;;;;;;;0.80;0.80;;;;;;;6.65;94.01;95769.88;4380031;32;20276;-61
2022/11/06 03:15:41;;;;;;;0.50;0.40;;;;;;;6.72;93.63;95769.66;4379685;32;20292;-61
2022/11/06 03:18:39;;;;;;;0.60;0.60;;;;;;;6.69;93.66;95768.31;4363988;32;20264;-61
2022/11/06 03:21:31;;;;;;;1.03;1.03;;;;;;;6.61;94.34;95766.19;4375809;32;20299;-61
2022/11/06 03:24:09;;;;;;;0.87;0.87;;;;;;;6.67;93.72;95757.22;4335927;32;20331;-61
2022/11/06 03:26:43;;;;;;;2.53;1.03;;;;;;;6.83;92.90;95768.66;4343064;32;20273;-61
2022/11/06 03:29:16;;;;;;;0.90;0.90;;;;;;;6.62;93.53;95767.78;4341235;32;20343;-61
2022/11/06 03:31:50;;;;;;;1.03;1.03;;;;;;;6.61;93.82;95768.81;4336947;32;20274;-61
2022/11/06 03:34:35;;;;;;;0.40;0.40;;;;;;;6.64;93.57;95765.66;4314259;32;20324;-61
2022/11/06 03:37:16;;;;;;;1.20;1.10;;;;;;;6.67;93.68;95766.97;4329015;32;20305;-61
2022/11/06 03:39:49;;;;;;;0.50;0.50;;;;;;;6.71;92.84;95771.47;4356813;32;20295;-61
2022/11/06 03:42:28;;;;;;;0.90;0.90;;;;;;;6.63;93.16;95772.00;4358318;32;20284;-61
2022/11/06 03:45:00;;;;;;;0.43;0.43;;;;;;;6.55;93.53;95777.75;4353312;32;20281;-61
2022/11/06 03:47:36;;;;;;;0.77;0.77;;;;;;;6.64;93.32;95776.22;4314847;32;20305;-61
2022/11/06 03:50:25;;;;;;;1.33;1.33;;;;;;;6.76;92.12;95776.78;4364850;32;20277;-61
2022/11/06 03:52:56;;;;;;;1.00;1.00;;;;;;;6.72;92.37;95767.81;4353402;32;20287;-61
2022/11/06 03:55:27;;;;;;;1.37;0.83;;;;;;;6.76;92.48;95771.50;4361662;32;20352;-61
2022/11/06 03:57:57;;;;;;;0.30;0.30;;;;;;;6.71;92.78;95762.78;4385144;32;20303;-61
2022/11/06 04:00:23;;;;;;;0.57;0.37;;;;;;;6.60;92.84;95774.34;4347358;32;20292;-61
2022/11/06 04:03:03;;;;;;;0.80;0.80;;;;;;;6.50;93.13;95770.59;4365775;32;20303;-62
2022/11/06 04:06:02;;;;;;;0.53;0.53;;;;;;;6.63;92.37;95777.28;4385977;32;20230;-62
2022/11/06 04:14:06;;;;;;;1.03;1.03;;;;;;;6.36;93.10;95771.31;4358750;32;20357;-61
2022/11/06 04:16:54;;;;;;;0.80;0.80;;;;;;;6.52;92.67;95767.72;4371801;32;20302;-62
2022/11/06 04:19:22;;;;;;;1.23;1.23;;;;;;;6.64;91.99;95763.03;4374206;32;20281;-62
2022/11/06 04:22:03;;;;;;;3.33;1.07;;;;;;;6.62;91.36;95765.13;4375313;32;20367;-61
2022/11/06 04:28:29;;;;;;;0.50;0.50;;;;;;;6.26;92.70;95763.34;4348274;32;20326;-61
2022/11/06 04:31:09;;;;;;;0.73;0.73;;;;;;;6.18;93.42;95760.16;4341784;32;20345;-62
2022/11/06 04:33:59;;;;;;;0.80;0.80;;;;;;;6.29;93.13;95762.84;4346140;32;20400;-62
2022/11/06 04:36:36;;;;;;;1.03;0.93;;;;;;;6.04;93.69;95759.00;4376080;32;20284;-61
2022/11/06 04:39:44;;;;;;;0.47;0.47;;;;;;;6.17;93.60;95763.84;4355142;32;20298;-62
2022/11/06 04:42:30;;;;;;;0.70;0.70;;;;;;;6.02;93.61;95760.31;4357256;32;20352;-62
2022/11/06 04:45:04;;;;;;;1.33;1.00;;;;;;;6.01;93.89;95748.19;4358955;32;20289;-62
2022/11/06 04:47:30;;;;;;;0.23;0.23;;;;;;;6.07;93.71;95741.91;4378864;32;20332;-62
2022/11/06 04:49:58;;;;;;;0.77;0.77;;;;;;;6.02;93.91;95740.03;4378248;32;20289;-62
2022/11/06 04:52:28;;;;;;;1.47;1.37;;;;;;;6.09;93.29;95740.59;4374899;32;20197;-61
2022/11/06 04:54:57;;;;;;;1.33;1.33;;;;;;;6.12;92.95;95745.38;4365340;32;20285;-61
2022/11/06 04:57:25;;;;;;;0.60;0.60;;;;;;;6.02;92.85;95745.31;4375392;32;20326;-61
2022/11/06 04:59:53;;;;;;;0.50;0.50;;;;;;;5.91;92.92;95741.00;4347778;32;20364;-61
2022/11/06 05:02:19;;;;;;;0.77;0.77;;;;;;;5.65;93.37;95749.72;4360319;32;20368;-61
2022/11/06 05:04:45;;;;;;;0.60;0.60;;;;;;;5.36;94.32;95747.41;4340717;32;20308;-61
2022/11/06 05:07:16;;;;;;;1.07;0.97;;;;;;;5.01;95.99;95739.94;4358886;32;20277;-61
2022/11/06 05:09:44;;;;;;;0.73;0.73;;;;;;;5.04;95.85;95749.19;4351118;32;20197;-61
2022/11/06 05:12:09;;;;;;;0.80;0.80;;;;;;;4.85;96.22;95746.09;4303806;32;20313;-61
2022/11/06 05:14:35;;;;;;;9.73;1.40;;;;;;;5.14;96.32;95741.41;4357137;32;20343;-61
2022/11/06 05:17:01;;;;;;;0.70;0.70;;;;;;;5.08;96.11;95737.91;4340661;32;20252;-61
2022/11/06 05:19:28;;;;;;;0.30;0.30;;;;;;;5.10;95.49;95738.47;4312255;32;20189;-61
2022/11/06 05:24:41;;;;;;;2.63;0.63;;;;;;;4.80;95.85;95730.25;4350377;32;20345;-61
2022/11/06 05:27:07;;;;;;;0.57;0.57;;;;;;;4.79;95.98;95732.09;4344467;32;20311;-61
2022/11/06 05:29:34;;;;;;;1.13;1.03;;;;;;;4.87;96.22;95727.44;4363144;32;20496;-61
2022/11/06 05:32:00;;;;;;;0.47;0.47;;;;;;;5.18;95.55;95716.19;4367998;32;20184;-61
2022/11/06 05:34:26;;;;;;;1.07;1.07;;;;;;;5.17;95.34;95717.25;4373982;32;20289;-61
2022/11/06 05:36:52;;;;;;;0.60;0.60;;;;;;;5.22;94.64;95719.91;4362394;32;20224;-61
2022/11/06 05:39:18;;;;;;;1.70;0.60;;;;;;;5.15;94.53;95714.06;4354764;32;20390;-61
2022/11/06 05:41:50;;;;;;;0.50;0.50;;;;;;;5.29;94.75;95709.97;4350272;32;20320;-61
2022/11/06 05:44:17;;;;;;;0.43;0.43;;;;;;;5.46;94.13;95704.59;4356253;32;20264;-61
2022/11/06 05:46:44;;;;;;;0.57;0.57;;;;;;;5.60;93.44;95720.75;4349773;32;20273;-61
2022/11/06 05:49:10;;;;;;;0.70;0.70;;;;;;;5.56;92.92;95711.78;4359034;32;20275;-61
2022/11/06 05:51:37;;;;;;;0.20;0.20;;;;;;;5.83;92.16;95715.13;4350390;32;20288;-61
2022/11/06 05:54:04;;;;;;;0.53;0.53;;;;;;;5.85;92.02;95718.28;4349914;32;20326;-61
2022/11/06 05:56:32;;;;;;;0.50;0.50;;;;;;;5.92;91.96;95718.09;4367146;32;20273;-62
2022/11/06 05:59:00;;;;;;;1.03;1.03;;;;;;;5.89;92.09;95708.88;4369194;32;20326;-61
2022/11/06 06:01:27;;;;;;;0.33;0.33;;;;;;;5.69;92.41;95706.06;4364245;32;20326;-61
2022/11/06 06:03:53;;;;;;;0.50;0.50;;;;;;;5.70;92.58;95705.03;4370586;32;20326;-61
2022/11/06 06:06:19;;;;;;;0.50;0.50;;;;;;;5.52;93.56;95701.75;4358690;32;20360;-61
2022/11/06 06:08:45;;;;;;;0.20;0.20;;;;;;;5.43;93.37;95711.13;4331838;32;20338;-61
2022/11/06 06:11:13;;;;;;;0.50;0.43;;;;;;;5.43;93.03;95711.13;4365676;32;20273;-62
2022/11/06 06:13:39;;;;;;;0.30;0.30;;;;;;;5.35;93.24;95708.19;4379360;32;20272;-61
2022/11/06 06:16:06;;;;;;;0.20;0.20;;;;;;;5.33;92.81;95705.81;4348398;32;20289;-61
2022/11/06 06:18:32;;;;;;;0.50;0.50;;;;;;;5.33;92.56;95699.75;4354776;32;20192;-61
2022/11/06 06:20:59;;;;;;;0.10;0.10;;;;;;;5.03;93.51;95695.00;4372280;32;20322;-61
2022/11/06 06:23:26;;;;;;;0.23;0.23;;;;;;;4.95;93.67;95688.38;4355838;32;20219;-61
2022/11/06 06:25:52;;;;;;;0.67;0.67;;;;;;;5.03;93.25;95689.75;4354917;32;20289;-61
2022/11/06 06:28:19;;;;;;;0.40;0.40;;;;;;;5.01;93.10;95691.81;4372526;32;20311;-61
2022/11/06 06:30:45;;;;;;;0.47;0.47;;;;;;;4.72;93.83;95694.72;4369001;32;20316;-61
2022/11/06 06:33:10;;;;;;;0.50;0.50;;;;;;;4.69;94.48;95694.41;4367595;32;20302;-61
2022/11/06 06:35:38;;;;;;;0.50;0.50;;;;;;;4.55;94.93;95677.44;4389178;32;20204;-61
2022/11/06 06:38:05;;;;;;;0.80;0.80;;;;;;;4.64;94.77;95686.47;4359197;32;20268;-61
2022/11/06 06:40:31;;;;;;;0.63;0.63;;;;;;;4.75;94.54;95678.47;4343553;32;20269;-61
2022/11/06 06:42:57;;;;;;;0.47;0.47;;;;;;;4.81;93.40;95685.34;4373168;32;20323;-62
2022/11/06 06:45:24;;;;;;;0.50;0.50;;;;;;;4.78;94.31;95683.19;4358226;32;20195;-61
2022/11/06 06:47:49;;;;;;;0.97;0.87;;;;;;;4.72;93.94;95681.56;4363045;32;20290;-61
2022/11/06 06:50:16;;;;;;;0.30;0.30;;;;;;;4.58;93.78;95679.56;4373926;32;20315;-61
2022/11/06 06:52:41;;;;;;;0.30;0.30;;;;;;;4.53;94.76;95675.06;4358102;32;20263;-61
2022/11/06 06:55:07;;;;;;;0.43;0.43;;;;;;;4.72;94.39;95678.94;4342205;32;20280;-61
2022/11/06 06:57:33;;;;;;;0.20;0.20;;;;;;;4.37;95.18;95681.16;4374722;32;20203;-61
2022/11/06 06:59:59;;;;;;;1.27;1.10;;;;;;;4.36;95.84;95669.09;4369437;32;20178;-62
2022/11/06 07:02:24;;;;;;;0.73;0.73;;;;;;;4.34;95.80;95669.34;4386280;32;20284;-61
2022/11/06 07:04:49;;;;;;;0.70;0.70;;;;;;;4.74;95.14;95669.00;4380331;32;20192;-62
2022/11/06 07:07:16;;;;;;;3.03;0.70;;;;;;;4.70;95.05;95675.78;4379917;32;20192;-62
2022/11/06 07:09:43;;;;;;;0.57;0.57;;;;;;;4.91;94.58;95675.97;4352155;32;20202;-61
2022/11/06 07:12:10;;;;;;;1.00;0.93;;;;;;;5.15;93.34;95672.00;4381184;32;20288;-61
2022/11/06 07:14:37;;;;;;;1.03;0.93;;;;;;;5.18;92.81;95668.88;4316539;32;20311;-61
2022/11/06 07:17:04;;;;;;;0.67;0.67;;;;;;;5.17;92.82;95678.59;4377633;32;20277;-61
2022/11/06 07:19:29;;;;;;;0.40;0.40;;;;;;;5.12;92.94;95685.63;4362291;32;20394;-62
2022/11/06 07:21:56;;;;;;;0.50;0.50;;;;;;;5.21;93.29;95686.75;4365155;32;20363;-61
2022/11/06 07:24:21;;;;;;;0.57;0.57;;;;;;;5.26;93.71;95692.06;4389348;32;20395;-61
2022/11/06 07:26:48;;;;;;;0.70;0.70;;;;;;;5.30;93.66;95685.25;4369836;32;20281;-61
2022/11/06 07:29:14;;;;;;;0.83;0.83;;;;;;;5.46;93.66;95680.91;4380255;32;20192;-61
2022/11/06 07:31:40;;;;;;;0.43;0.43;;;;;;;5.58;93.51;95681.53;4366540;32;20295;-61
2022/11/06 07:34:09;;;;;;;1.20;1.20;;;;;;;5.75;92.86;95686.66;4360296;32;20180;-61
2022/11/06 07:36:34;;;;;;;0.67;0.67;;;;;;;5.78;93.11;95691.41;4366376;32;20315;-61
2022/11/06 07:39:00;;;;;;;1.40;1.33;;;;;;;5.98;92.53;95694.19;4371183;32;20276;-61
2022/11/06 07:41:27;;;;;;;0.93;0.93;;;;;;;6.02;92.78;95697.91;4372451;32;20199;-61
2022/11/06 07:43:59;;;;;;;0.97;0.97;;;;;;;6.04;93.58;95690.53;4349423;32;20227;-61
2022/11/06 07:46:25;;;;;;;0.67;0.67;;;;;;;5.99;94.06;95685.25;4247990;32;20287;-61
2022/11/06 07:48:51;;;;;;;1.27;1.17;;;;;;;6.15;93.87;95681.66;4317845;32;20444;-61
2022/11/06 07:51:19;;;;;;;0.83;0.83;;;;;;;6.26;93.78;95681.69;4372163;32;20265;-61
2022/11/06 07:53:44;;;;;;;1.00;1.00;;;;;;;6.45;93.65;95680.97;4339416;32;20304;-61
2022/11/06 07:56:11;;;;;;;0.43;0.40;;;;;;;6.55;93.13;95680.22;4360420;32;20285;-61
2022/11/06 07:58:44;;;;;;;0.60;0.60;;;;;;;6.63;93.32;95676.31;4365396;32;20285;-61
2022/11/06 08:01:20;;;;;;;1.00;1.00;;;;;;;6.61;93.95;95675.78;4362847;32;20378;-61
2022/11/06 08:03:47;;;;;;;1.07;1.07;;;;;;;6.72;93.53;95672.91;4325053;32;20288;-61
2022/11/06 08:06:13;;;;;;;0.63;0.63;;;;;;;6.70;93.37;95664.44;4325008;32;20299;-61
2022/11/06 08:08:41;;;;;;;0.80;0.80;;;;;;;6.78;93.69;95666.59;4310603;32;20307;-61
2022/11/06 08:11:11;;;;;;;1.13;1.13;;;;;;;6.95;93.47;95663.72;4300111;32;20286;-61
2022/11/06 08:13:39;;;;;;;1.43;1.43;;;;;;;6.92;94.08;95655.53;4319989;32;20285;-61
2022/11/06 08:16:10;;;;;;;1.63;0.47;;;;;;;6.94;94.02;95646.31;4379971;32;20332;-62
2022/11/06 08:18:36;;;;;;;1.13;1.13;;;;;;;7.02;93.99;95645.00;4365155;32;20330;-61
2022/11/06 08:21:03;;;;;;;1.10;1.10;;;;;;;6.83;94.89;95639.44;4338347;32;20280;-63
2022/11/06 08:23:28;;;;;;;0.97;0.97;;;;;;;6.93;94.84;95625.47;4358511;32;20243;-64
2022/11/06 08:25:57;;;;;;;1.20;1.20;;;;;;;7.00;95.09;95620.75;4389073;32;20284;-61
2022/11/06 08:28:27;;;;;;;1.97;1.63;;;;;;;6.95;95.69;95618.09;4367800;32;20188;-61
2022/11/06 08:31:01;;;;;;;0.87;0.87;;;;;;;6.98;95.59;95617.56;4357389;32;20344;-61
2022/11/06 08:33:28;;;;;;;0.50;0.50;;;;;;;7.10;95.60;95621.53;4380505;32;20276;-61
2022/11/06 08:35:53;;;;;;;0.57;0.57;;;;;;;7.20;95.68;95615.47;4361218;32;20281;-61
2022/11/06 08:38:18;;;;;;;1.97;1.47;;;;;;;7.32;95.27;95623.91;4347860;32;20354;-61
2022/11/06 08:40:46;;;;;;;1.07;1.07;;;;;;;7.21;95.51;95628.41;4331540;32;20228;-61
2022/11/06 08:43:13;;;;;;;1.73;1.63;;;;;;;7.27;95.47;95620.50;4369649;32;20228;-61
2022/11/06 08:45:42;;;;;;;2.50;1.57;;;;;;;7.46;95.16;95621.53;4383792;32;20279;-63
2022/11/06 08:48:08;;;;;;;1.27;1.27;;;;;;;7.45;95.19;95614.66;4320451;32;20273;-61
2022/11/06 08:50:37;;;;;;;1.33;1.33;;;;;;;7.55;95.02;95609.34;4361226;32;20359;-61
2022/11/06 08:53:05;;;;;;;1.47;1.47;;;;;;;7.64;94.87;95604.34;4361093;32;20295;-61
2022/11/06 08:55:35;;;;;;;1.03;1.03;;;;;;;7.73;94.76;95605.34;4324366;32;20349;-64
2022/11/06 08:58:01;;;;;;;1.27;1.20;;;;;;;7.80;94.15;95600.59;4348887;32;20277;-61
2022/11/06 09:00:28;;;;;;;1.60;1.50;;;;;;;7.74;94.01;95599.81;4365511;32;20283;-61
2022/11/06 09:03:00;;;;;;;1.40;1.40;;;;;;;7.79;94.01;95599.03;4368281;32;20369;-61
2022/11/06 09:05:27;;;;;;;0.93;0.93;;;;;;;7.80;94.38;95592.69;4338928;32;20273;-61
2022/11/06 09:07:57;;;;;;;1.13;1.13;;;;;;;7.82;94.13;95583.44;4367708;32;20265;-61
2022/11/06 09:10:26;;;;;;;1.33;1.33;;;;;;;7.86;94.08;95573.13;4370224;32;20294;-62
2022/11/06 09:12:53;;;;;;;1.27;1.27;;;;;;;7.87;94.17;95578.13;4364112;32;20292;-61
2022/11/06 09:15:23;;;;;;;0.83;0.83;;;;;;;7.99;94.01;95572.53;4380833;32;20394;-61
2022/11/06 09:17:50;;;;;;;1.07;1.07;;;;;;;7.96;94.07;95575.72;4371756;32;20360;-61
2022/11/06 09:20:18;;;;;;;1.13;1.13;;;;;;;7.88;94.47;95573.66;4377063;32;20272;-61
2022/11/06 09:22:46;;;;;;;0.97;0.97;;;;;;;7.94;94.51;95567.25;4385929;32;20276;-61
2022/11/06 09:25:12;;;;;;;1.53;1.43;;;;;;;7.96;94.52;95562.50;4383394;32;20285;-61
2022/11/06 09:27:41;;;;;;;0.73;0.73;;;;;;;7.96;94.77;95561.72;4375555;32;20284;-61
2022/11/06 09:30:13;;;;;;;1.57;1.47;;;;;;;8.06;93.73;95551.13;4379333;32;20332;-61
2022/11/06 09:32:48;;;;;;;1.03;1.03;;;;;;;8.14;93.24;95553.97;4364316;32;20276;-61
2022/11/06 09:35:15;;;;;;;1.20;1.20;;;;;;;8.04;93.81;95548.75;4360444;32;20314;-61
2022/11/06 09:37:41;;;;;;;2.17;1.47;;;;;;;8.12;92.91;95534.94;4373243;32;20281;-62
2022/11/06 09:40:24;;;;;;;0.90;0.90;;;;;;;8.15;93.57;95521.19;4353782;32;20295;-61
2022/11/06 09:43:18;;;;;;;1.40;1.30;;;;;;;8.26;92.32;95514.81;4385020;32;20403;-61
2022/11/06 09:45:46;;;;;;;0.60;0.60;;;;;;;8.25;92.53;95507.16;4352045;32;20328;-61
2022/11/06 09:48:28;;;;;;;0.90;0.90;;;;;;;8.20;93.21;95504.53;4373392;32;20318;-61
2022/11/06 09:51:27;;;;;;;1.20;1.20;;;;;;;8.38;91.59;95505.78;4373012;32;20281;-64
2022/11/06 09:53:57;;;;;;;0.83;0.83;;;;;;;8.30;92.58;95504.50;4363963;32;20276;-61
2022/11/06 09:56:27;;;;;;;2.00;1.00;;;;;;;8.31;91.63;95497.34;4380758;32;20276;-61
2022/11/06 09:58:54;;;;;;;1.00;1.00;;;;;;;8.41;91.44;95506.03;4330805;32;20296;-62
2022/11/06 10:01:39;;;;;;;0.93;0.93;;;;;;;8.38;91.10;95496.00;4383569;32;20367;-60
2022/11/06 10:04:22;;;;;;;1.20;1.20;;;;;;;8.45;91.24;95498.34;4333722;32;20354;-60
2022/11/06 10:06:49;;;;;;;1.60;1.50;;;;;;;8.48;91.74;95495.16;4329197;32;20281;-60
2022/11/06 10:09:16;;;;;;;0.83;0.83;;;;;;;8.55;91.24;95493.75;4364552;32;20395;-61
2022/11/06 10:11:48;;;;;;;0.77;0.77;;;;;;;8.61;91.17;95497.94;4379141;32;20330;-61
2022/11/06 10:14:38;;;;;;;0.80;0.80;;;;;;;8.74;90.54;95487.78;4350232;32;20284;-60
2022/11/06 10:17:24;;;;;;;0.67;0.67;;;;;;;8.77;89.35;95468.72;4354095;32;20285;-60
2022/11/06 10:20:16;;;;;;;0.50;0.50;;;;;;;8.83;89.12;95455.19;4342296;32;20290;-60
2022/11/06 10:23:02;;;;;;;1.17;1.17;;;;;;;8.87;89.69;95448.28;4353664;32;20298;-60
2022/11/06 10:25:48;;;;;;;0.80;0.80;;;;;;;8.97;89.41;95447.38;4356592;32;20292;-60
2022/11/06 10:28:44;;;;;;;1.03;1.03;;;;;;;8.92;88.36;95442.16;4380600;32;20276;-60
2022/11/06 10:31:42;;;;;;;0.73;0.73;;;;;;;8.88;88.23;95435.84;4384008;32;20311;-60
2022/11/06 10:34:16;;;;;;;1.00;1.00;;;;;;;8.91;88.18;95433.44;4356997;32;20322;-60
2022/11/06 10:37:01;;;;;;;0.70;0.70;;;;;;;8.94;87.70;95424.91;4357456;32;20299;-61
2022/11/06 10:39:37;;;;;;;0.73;0.73;;;;;;;8.90;87.19;95417.84;4356644;32;20291;-60
2022/11/06 10:42:23;;;;;;;0.90;0.90;;;;;;;8.92;87.26;95427.06;4364283;32;20327;-61
2022/11/06 10:44:58;;;;;;;1.10;1.00;;;;;;;8.99;86.89;95416.12;4368152;32;20483;-61
2022/11/06 10:47:31;;;;;;;0.70;0.70;;;;;;;8.96;86.22;95406.91;4355382;32;20360;-60
2022/11/06 10:49:59;;;;;;;1.23;1.23;;;;;;;8.93;86.33;95412.78;4345480;32;20370;-61
2022/11/06 10:52:46;;;;;;;0.80;0.80;;;;;;;9.04;86.51;95404.72;4370366;32;20285;-60
2022/11/06 10:55:38;;;;;;;0.87;0.87;;;;;;;9.10;86.74;95395.66;4368297;32;20295;-60
2022/11/06 10:58:07;;;;;;;0.97;0.97;;;;;;;9.19;85.63;95386.03;4376875;32;20295;-60
2022/11/06 11:00:34;;;;;;;0.93;0.93;;;;;;;9.23;84.68;95387.03;4380947;32;20331;-61
2022/11/06 11:03:05;;;;;;;0.70;0.70;;;;;;;9.17;84.94;95375.72;4362738;32;20277;-61
2022/11/06 11:05:44;;;;;;;0.63;0.63;;;;;;;9.16;84.63;95368.06;4352401;32;20278;-60
2022/11/06 11:08:41;;;;;;;0.87;0.83;;;;;;;9.23;84.92;95360.56;4365033;32;20284;-60
2022/11/06 11:11:12;;;;;;;0.57;0.57;;;;;;;9.25;85.26;95351.28;4377211;32;20276;-61
2022/11/06 11:13:45;;;;;;;0.87;0.87;;;;;;;9.25;85.81;95343.34;4356308;32;20244;-60
2022/11/06 11:16:21;;;;;;;0.60;0.60;;;;;;;9.29;86.21;95343.56;4387242;32;20309;-61
2022/11/06 11:18:48;;;;;;;0.73;0.73;;;;;;;9.41;82.86;95330.69;4355884;32;20284;-61
2022/11/06 11:21:26;;;;;;;1.27;1.17;;;;;;;9.39;83.69;95313.50;4374635;32;20307;-61
2022/11/06 11:24:03;;;;;;;1.37;1.37;;;;;;;9.38;83.87;95312.72;4373543;32;20356;-61
2022/11/06 11:26:37;;;;;;;1.37;1.37;;;;;;;9.50;84.15;95315.75;4380852;32;20235;-61
2022/11/06 11:29:14;;;;;;;1.60;1.50;;;;;;;9.48;83.54;95307.31;4351328;32;20189;-61
2022/11/06 11:31:45;;;;;;;0.63;0.63;;;;;;;9.47;83.01;95312.87;4354288;32;20285;-61
2022/11/06 11:34:18;;;;;;;1.73;1.63;;;;;;;9.49;82.52;95306.22;4343225;32;20281;-61
2022/11/06 11:37:03;;;;;;;1.10;1.10;;;;;;;9.43;82.52;95303.94;4352219;32;20186;-61
2022/11/06 11:39:35;;;;;;;1.07;1.07;;;;;;;9.49;81.93;95308.88;4358899;32;20189;-60
2022/11/06 11:42:36;;;;;;;1.47;1.37;;;;;;;9.58;80.81;95301.06;4355072;32;20184;-63
2022/11/06 11:45:17;;;;;;;1.00;1.00;;;;;;;9.59;80.06;95303.41;4294252;32;20287;-61
2022/11/06 11:48:11;;;;;;;0.40;0.40;;;;;;;9.58;80.33;95299.19;4350467;32;20181;-60
2022/11/06 11:50:37;;;;;;;0.37;0.37;;;;;;;9.51;80.46;95298.00;4361776;32;20257;-61
2022/11/06 11:53:20;;;;;;;0.83;0.83;;;;;;;9.55;80.50;95288.41;4373175;32;20208;-61
2022/11/06 11:56:12;;;;;;;0.60;0.60;;;;;;;9.62;80.19;95286.97;4365810;32;20239;-61
2022/11/06 11:58:40;;;;;;;0.43;0.43;;;;;;;9.57;80.56;95289.69;4369122;32;20204;-61
2022/11/06 12:01:26;;;;;;;0.50;0.50;;;;;;;9.66;80.65;95281.88;4362194;32;20293;-60
2022/11/06 12:04:12;;;;;;;0.63;0.63;;;;;;;9.75;80.51;95269.56;4364894;32;20222;-60
2022/11/06 12:06:49;;;;;;;1.23;1.23;;;;;;;9.67;81.43;95261.47;4372355;32;20193;-61
2022/11/06 12:09:14;;;;;;;0.50;0.50;;;;;;;9.79;81.40;95253.84;4349167;32;20202;-61
2022/11/06 12:11:42;;;;;;;0.63;0.63;;;;;;;9.83;81.80;95249.56;4382476;32;20260;-61
2022/11/06 12:14:36;;;;;;;0.60;0.60;;;;;;;9.78;82.87;95255.72;4344056;32;20219;-60
2022/11/06 12:17:21;;;;;;;1.10;1.10;;;;;;;9.91;83.08;95252.34;4344604;32;20188;-61
2022/11/06 12:19:53;;;;;;;0.77;0.73;;;;;;;9.92;83.55;95253.13;4357537;32;20200;-61